sensor_id;sensor_type;location;lat;lon;timestamp;temperature;humidity
17986;DHT22;9118;48.122;11.546;2024-03-08T00:01:37;3.00;99.90
17986;DHT22;9118;48.122;11.546;2024-03-08T00:04:04;3.10;99.90
17986;DHT22;9118;48.122;11.546;2024-03-08T00:06:31;3.00;99.90
17986;DHT22;9118;48.122;11.546;2024-03-08T00:08:58;2.90;99.90
17986;DHT22;9118;48.122;11.546;2024-03-08T00:11:27;2.80;99.90
17986;DHT22;9118;48.122;11.546;2024-03-08T00:13:53;3.00;99.90
17986;DHT22;9118;48.122;11.546;2024-03-08T00:16:20;3.10;99.90
17986;DHT22;9118;48.122;11.546;2024-03-08T00:18:48;2.90;99.90
17986;DHT22;9118;48.122;11.546;2024-03-08T00:21:15;2.60;99.90
17986;DHT22;9118;48.122;11.546;2024-03-08T00:23:42;2.80;99.90
17986;DHT22;9118;48.122;11.546;2024-03-08T00:26:09;2.60;99.90
17986;DHT22;9118;48.122;11.546;2024-03-08T00:28:37;2.80;99.90
17986;DHT22;9118;48.122;11.546;2024-03-08T00:31:04;2.70;99.90
17986;DHT22;9118;48.122;11.546;2024-03-08T00:33:32;2.50;99.90
17986;DHT22;9118;48.122;11.546;2024-03-08T00:35:59;2.70;99.90
17986;DHT22;9118;48.122;11.546;2024-03-08T00:38:26;2.70;99.90
17986;DHT22;9118;48.122;11.546;2024-03-08T00:40:53;2.70;99.90
17986;DHT22;9118;48.122;11.546;2024-03-08T00:43:21;2.70;99.90
17986;DHT22;9118;48.122;11.546;2024-03-08T00:45:49;2.90;99.90
17986;DHT22;9118;48.122;11.546;2024-03-08T00:48:16;2.60;99.90
17986;DHT22;9118;48.122;11.546;2024-03-08T00:50:43;2.60;99.90
17986;DHT22;9118;48.122;11.546;2024-03-08T00:53:11;2.70;99.90
17986;DHT22;9118;48.122;11.546;2024-03-08T00:55:38;2.70;99.90
17986;DHT22;9118;48.122;11.546;2024-03-08T00:58:05;2.90;99.90
17986;DHT22;9118;48.122;11.546;2024-03-08T01:00:37;2.80;99.90
17986;DHT22;9118;48.122;11.546;2024-03-08T01:03:07;2.70;99.90
17986;DHT22;9118;48.122;11.546;2024-03-08T01:05:36;2.60;99.90
17986;DHT22;9118;48.122;11.546;2024-03-08T01:08:03;2.60;99.90
17986;DHT22;9118;48.122;11.546;2024-03-08T01:10:30;2.30;99.90
17986;DHT22;9118;48.122;11.546;2024-03-08T01:12:58;2.60;99.90
17986;DHT22;9118;48.122;11.546;2024-03-08T01:15:26;2.40;99.90
17986;DHT22;9118;48.122;11.546;2024-03-08T01:17:54;2.50;99.90
17986;DHT22;9118;48.122;11.546;2024-03-08T01:20:22;2.50;99.90
17986;DHT22;9118;48.122;11.546;2024-03-08T01:22:49;2.40;99.90
17986;DHT22;9118;48.122;11.546;2024-03-08T01:25:17;2.00;99.90
17986;DHT22;9118;48.122;11.546;2024-03-08T01:27:44;2.40;99.90
17986;DHT22;9118;48.122;11.546;2024-03-08T01:30:11;2.40;99.90
17986;DHT22;9118;48.122;11.546;2024-03-08T01:32:38;2.50;99.90
17986;DHT22;9118;48.122;11.546;2024-03-08T01:35:05;2.50;99.90
17986;DHT22;9118;48.122;11.546;2024-03-08T01:37:36;2.40;99.90
17986;DHT22;9118;48.122;11.546;2024-03-08T01:40:03;2.60;99.90
17986;DHT22;9118;48.122;11.546;2024-03-08T01:42:31;2.40;99.90
17986;DHT22;9118;48.122;11.546;2024-03-08T01:44:58;2.20;99.90
17986;DHT22;9118;48.122;11.546;2024-03-08T01:47:25;2.40;99.90
17986;DHT22;9118;48.122;11.546;2024-03-08T01:49:52;2.60;99.90
17986;DHT22;9118;48.122;11.546;2024-03-08T01:52:19;2.50;99.90
17986;DHT22;9118;48.122;11.546;2024-03-08T01:54:50;2.50;99.90
17986;DHT22;9118;48.122;11.546;2024-03-08T01:57:17;2.40;99.90
17986;DHT22;9118;48.122;11.546;2024-03-08T01:59:46;2.40;99.90
17986;DHT22;9118;48.122;11.546;2024-03-08T02:02:14;2.50;99.90
17986;DHT22;9118;48.122;11.546;2024-03-08T02:04:41;2.50;99.90
17986;DHT22;9118;48.122;11.546;2024-03-08T02:07:08;2.20;99.90
17986;DHT22;9118;48.122;11.546;2024-03-08T02:09:35;2.40;99.90
17986;DHT22;9118;48.122;11.546;2024-03-08T02:12:03;2.10;99.90
17986;DHT22;9118;48.122;11.546;2024-03-08T02:14:30;2.30;99.90
17986;DHT22;9118;48.122;11.546;2024-03-08T02:16:59;2.20;99.90
17986;DHT22;9118;48.122;11.546;2024-03-08T02:19:26;2.20;99.90
17986;DHT22;9118;48.122;11.546;2024-03-08T02:21:55;2.10;99.90
17986;DHT22;9118;48.122;11.546;2024-03-08T02:24:22;2.20;99.90
17986;DHT22;9118;48.122;11.546;2024-03-08T02:26:49;2.20;99.90
17986;DHT22;9118;48.122;11.546;2024-03-08T02:29:16;2.20;99.90
17986;DHT22;9118;48.122;11.546;2024-03-08T02:31:43;2.20;99.90
17986;DHT22;9118;48.122;11.546;2024-03-08T02:34:10;2.20;99.90
17986;DHT22;9118;48.122;11.546;2024-03-08T02:36:40;2.20;99.90
17986;DHT22;9118;48.122;11.546;2024-03-08T02:39:08;2.20;99.90
17986;DHT22;9118;48.122;11.546;2024-03-08T02:41:36;2.10;99.90
17986;DHT22;9118;48.122;11.546;2024-03-08T02:44:03;1.90;99.90
17986;DHT22;9118;48.122;11.546;2024-03-08T02:46:29;3.10;99.90
17986;DHT22;9118;48.122;11.546;2024-03-08T02:48:56;2.70;99.90
17986;DHT22;9118;48.122;11.546;2024-03-08T02:51:23;2.10;99.90
17986;DHT22;9118;48.122;11.546;2024-03-08T02:53:51;2.20;99.90
17986;DHT22;9118;48.122;11.546;2024-03-08T02:56:20;1.60;99.90
17986;DHT22;9118;48.122;11.546;2024-03-08T02:58:47;2.10;99.90
17986;DHT22;9118;48.122;11.546;2024-03-08T03:01:14;1.70;99.90
17986;DHT22;9118;48.122;11.546;2024-03-08T03:03:41;2.60;99.90
17986;DHT22;9118;48.122;11.546;2024-03-08T03:06:08;1.80;99.90
17986;DHT22;9118;48.122;11.546;2024-03-08T03:08:35;2.00;99.90
17986;DHT22;9118;48.122;11.546;2024-03-08T03:11:02;1.90;99.90
17986;DHT22;9118;48.122;11.546;2024-03-08T03:13:30;2.00;99.90
17986;DHT22;9118;48.122;11.546;2024-03-08T03:15:57;2.00;99.90
17986;DHT22;9118;48.122;11.546;2024-03-08T03:18:24;2.00;99.90
17986;DHT22;9118;48.122;11.546;2024-03-08T03:20:52;1.90;99.90
17986;DHT22;9118;48.122;11.546;2024-03-08T03:23:19;1.80;99.90
17986;DHT22;9118;48.122;11.546;2024-03-08T03:25:49;1.60;99.90
17986;DHT22;9118;48.122;11.546;2024-03-08T03:28:17;1.80;99.90
17986;DHT22;9118;48.122;11.546;2024-03-08T03:30:48;1.90;99.90
17986;DHT22;9118;48.122;11.546;2024-03-08T03:33:16;2.20;99.90
17986;DHT22;9118;48.122;11.546;2024-03-08T03:35:43;1.70;99.90
17986;DHT22;9118;48.122;11.546;2024-03-08T03:38:10;1.70;99.90
17986;DHT22;9118;48.122;11.546;2024-03-08T03:40:39;1.60;99.90
17986;DHT22;9118;48.122;11.546;2024-03-08T03:43:06;1.70;99.90
17986;DHT22;9118;48.122;11.546;2024-03-08T03:45:36;1.90;99.90
17986;DHT22;9118;48.122;11.546;2024-03-08T03:48:05;1.80;99.90
17986;DHT22;9118;48.122;11.546;2024-03-08T03:50:34;1.80;99.90
17986;DHT22;9118;48.122;11.546;2024-03-08T03:53:01;2.00;99.90
17986;DHT22;9118;48.122;11.546;2024-03-08T03:55:28;1.70;99.90
17986;DHT22;9118;48.122;11.546;2024-03-08T03:57:55;1.80;99.90
17986;DHT22;9118;48.122;11.546;2024-03-08T04:00:24;1.70;99.90
17986;DHT22;9118;48.122;11.546;2024-03-08T04:02:52;1.70;99.90
17986;DHT22;9118;48.122;11.546;2024-03-08T04:05:25;1.80;99.90
17986;DHT22;9118;48.122;11.546;2024-03-08T04:07:52;1.80;99.90
17986;DHT22;9118;48.122;11.546;2024-03-08T04:10:19;1.60;99.90
17986;DHT22;9118;48.122;11.546;2024-03-08T04:12:49;1.70;99.90
17986;DHT22;9118;48.122;11.546;2024-03-08T04:15:16;1.50;99.90
17986;DHT22;9118;48.122;11.546;2024-03-08T04:17:43;1.60;99.90
17986;DHT22;9118;48.122;11.546;2024-03-08T04:20:11;1.60;99.90
17986;DHT22;9118;48.122;11.546;2024-03-08T04:22:41;1.50;99.90
17986;DHT22;9118;48.122;11.546;2024-03-08T04:25:08;1.50;99.90
17986;DHT22;9118;48.122;11.546;2024-03-08T04:27:36;1.80;99.90
17986;DHT22;9118;48.122;11.546;2024-03-08T04:30:03;1.70;99.90
17986;DHT22;9118;48.122;11.546;2024-03-08T04:32:32;1.60;99.90
17986;DHT22;9118;48.122;11.546;2024-03-08T04:34:59;1.70;99.90
17986;DHT22;9118;48.122;11.546;2024-03-08T04:37:26;1.10;99.90
17986;DHT22;9118;48.122;11.546;2024-03-08T04:39:56;1.60;99.90
17986;DHT22;9118;48.122;11.546;2024-03-08T04:42:23;1.50;99.90
17986;DHT22;9118;48.122;11.546;2024-03-08T04:44:50;1.40;99.90
17986;DHT22;9118;48.122;11.546;2024-03-08T04:47:19;1.40;99.90
17986;DHT22;9118;48.122;11.546;2024-03-08T04:49:45;1.40;99.90
17986;DHT22;9118;48.122;11.546;2024-03-08T04:52:12;1.20;99.90
17986;DHT22;9118;48.122;11.546;2024-03-08T04:54:39;1.50;99.90
17986;DHT22;9118;48.122;11.546;2024-03-08T04:57:07;1.70;99.90
17986;DHT22;9118;48.122;11.546;2024-03-08T04:59:34;1.60;99.90
17986;DHT22;9118;48.122;11.546;2024-03-08T05:02:01;1.40;99.90
17986;DHT22;9118;48.122;11.546;2024-03-08T05:04:28;1.50;99.90
17986;DHT22;9118;48.122;11.546;2024-03-08T05:06:55;1.60;99.90
17986;DHT22;9118;48.122;11.546;2024-03-08T05:09:22;1.50;99.90
17986;DHT22;9118;48.122;11.546;2024-03-08T05:11:49;1.50;99.90
17986;DHT22;9118;48.122;11.546;2024-03-08T05:14:18;1.60;99.90
17986;DHT22;9118;48.122;11.546;2024-03-08T05:16:45;1.40;99.90
17986;DHT22;9118;48.122;11.546;2024-03-08T05:19:14;1.50;99.90
17986;DHT22;9118;48.122;11.546;2024-03-08T05:21:42;1.70;99.90
17986;DHT22;9118;48.122;11.546;2024-03-08T05:24:09;1.40;99.90
17986;DHT22;9118;48.122;11.546;2024-03-08T05:26:36;1.70;99.90
17986;DHT22;9118;48.122;11.546;2024-03-08T05:29:03;1.60;99.90
17986;DHT22;9118;48.122;11.546;2024-03-08T05:31:31;1.50;99.90
17986;DHT22;9118;48.122;11.546;2024-03-08T05:34:02;1.60;99.90
17986;DHT22;9118;48.122;11.546;2024-03-08T05:36:29;1.80;99.90
17986;DHT22;9118;48.122;11.546;2024-03-08T05:38:57;1.80;99.90
17986;DHT22;9118;48.122;11.546;2024-03-08T05:41:24;2.00;99.90
17986;DHT22;9118;48.122;11.546;2024-03-08T05:43:51;1.80;99.90
17986;DHT22;9118;48.122;11.546;2024-03-08T05:46:19;1.70;99.90
17986;DHT22;9118;48.122;11.546;2024-03-08T05:48:48;1.90;99.90
17986;DHT22;9118;48.122;11.546;2024-03-08T05:51:15;1.90;99.90
17986;DHT22;9118;48.122;11.546;2024-03-08T05:53:42;1.90;99.90
17986;DHT22;9118;48.122;11.546;2024-03-08T05:56:09;1.80;99.90
17986;DHT22;9118;48.122;11.546;2024-03-08T05:58:36;1.90;99.90
17986;DHT22;9118;48.122;11.546;2024-03-08T06:01:03;2.00;99.90
17986;DHT22;9118;48.122;11.546;2024-03-08T06:03:33;1.90;99.90
17986;DHT22;9118;48.122;11.546;2024-03-08T06:06:04;2.10;99.90
17986;DHT22;9118;48.122;11.546;2024-03-08T06:08:31;2.40;99.90
17986;DHT22;9118;48.122;11.546;2024-03-08T06:10:58;2.10;99.90
17986;DHT22;9118;48.122;11.546;2024-03-08T06:13:27;2.30;99.90
17986;DHT22;9118;48.122;11.546;2024-03-08T06:15:56;2.10;99.90
17986;DHT22;9118;48.122;11.546;2024-03-08T06:18:23;2.10;99.90
17986;DHT22;9118;48.122;11.546;2024-03-08T06:20:50;2.10;99.90
17986;DHT22;9118;48.122;11.546;2024-03-08T06:23:19;2.20;99.90
17986;DHT22;9118;48.122;11.546;2024-03-08T06:25:47;2.20;99.90
17986;DHT22;9118;48.122;11.546;2024-03-08T06:28:30;2.30;99.90
17986;DHT22;9118;48.122;11.546;2024-03-08T06:31:05;2.40;99.90
17986;DHT22;9118;48.122;11.546;2024-03-08T06:33:40;2.30;99.90
17986;DHT22;9118;48.122;11.546;2024-03-08T06:36:19;2.50;99.90
17986;DHT22;9118;48.122;11.546;2024-03-08T06:38:59;2.60;99.90
17986;DHT22;9118;48.122;11.546;2024-03-08T06:41:26;2.60;99.90
17986;DHT22;9118;48.122;11.546;2024-03-08T06:43:53;2.60;99.90
17986;DHT22;9118;48.122;11.546;2024-03-08T06:46:25;3.00;99.90
17986;DHT22;9118;48.122;11.546;2024-03-08T06:48:52;2.50;99.90
17986;DHT22;9118;48.122;11.546;2024-03-08T06:51:23;2.60;99.90
17986;DHT22;9118;48.122;11.546;2024-03-08T06:53:53;2.70;99.90
17986;DHT22;9118;48.122;11.546;2024-03-08T06:56:24;2.60;99.90
17986;DHT22;9118;48.122;11.546;2024-03-08T06:59:01;2.90;99.90
17986;DHT22;9118;48.122;11.546;2024-03-08T07:01:41;2.90;99.90
17986;DHT22;9118;48.122;11.546;2024-03-08T07:04:14;2.90;99.90
17986;DHT22;9118;48.122;11.546;2024-03-08T07:06:41;3.00;99.90
17986;DHT22;9118;48.122;11.546;2024-03-08T07:09:08;2.90;99.90
17986;DHT22;9118;48.122;11.546;2024-03-08T07:11:36;3.00;99.90
17986;DHT22;9118;48.122;11.546;2024-03-08T07:14:03;3.10;99.90
17986;DHT22;9118;48.122;11.546;2024-03-08T07:16:31;3.10;99.90
17986;DHT22;9118;48.122;11.546;2024-03-08T07:18:59;3.10;99.90
17986;DHT22;9118;48.122;11.546;2024-03-08T07:21:26;3.00;99.90
17986;DHT22;9118;48.122;11.546;2024-03-08T07:23:53;3.20;99.90
17986;DHT22;9118;48.122;11.546;2024-03-08T07:26:36;3.10;99.90
17986;DHT22;9118;48.122;11.546;2024-03-08T07:29:04;3.20;99.90
17986;DHT22;9118;48.122;11.546;2024-03-08T07:31:30;3.30;99.90
17986;DHT22;9118;48.122;11.546;2024-03-08T07:34:10;3.30;99.90
17986;DHT22;9118;48.122;11.546;2024-03-08T07:36:38;3.30;99.90
17986;DHT22;9118;48.122;11.546;2024-03-08T07:39:04;3.50;99.90
17986;DHT22;9118;48.122;11.546;2024-03-08T07:41:38;3.30;99.90
17986;DHT22;9118;48.122;11.546;2024-03-08T07:44:06;3.70;99.90
17986;DHT22;9118;48.122;11.546;2024-03-08T07:46:33;3.60;99.90
17986;DHT22;9118;48.122;11.546;2024-03-08T07:49:00;3.80;99.90
17986;DHT22;9118;48.122;11.546;2024-03-08T07:51:36;3.80;99.90
17986;DHT22;9118;48.122;11.546;2024-03-08T07:54:03;3.80;99.90
17986;DHT22;9118;48.122;11.546;2024-03-08T07:56:30;3.90;99.90
17986;DHT22;9118;48.122;11.546;2024-03-08T07:59:00;4.00;99.90
17986;DHT22;9118;48.122;11.546;2024-03-08T08:01:29;4.20;99.90
17986;DHT22;9118;48.122;11.546;2024-03-08T08:03:56;4.30;99.90
17986;DHT22;9118;48.122;11.546;2024-03-08T08:06:23;4.30;99.90
17986;DHT22;9118;48.122;11.546;2024-03-08T08:08:50;4.00;99.90
17986;DHT22;9118;48.122;11.546;2024-03-08T08:11:18;4.60;99.90
17986;DHT22;9118;48.122;11.546;2024-03-08T08:13:47;4.50;99.90
17986;DHT22;9118;48.122;11.546;2024-03-08T08:16:16;4.50;99.90
17986;DHT22;9118;48.122;11.546;2024-03-08T08:18:42;4.60;99.90
17986;DHT22;9118;48.122;11.546;2024-03-08T08:21:11;4.60;99.90
17986;DHT22;9118;48.122;11.546;2024-03-08T08:23:38;4.80;99.90
17986;DHT22;9118;48.122;11.546;2024-03-08T08:26:05;4.50;99.90
17986;DHT22;9118;48.122;11.546;2024-03-08T08:28:33;4.70;99.90
17986;DHT22;9118;48.122;11.546;2024-03-08T08:31:00;4.60;99.90
17986;DHT22;9118;48.122;11.546;2024-03-08T08:33:31;4.60;99.90
17986;DHT22;9118;48.122;11.546;2024-03-08T08:36:00;4.50;99.90
17986;DHT22;9118;48.122;11.546;2024-03-08T08:38:29;4.50;99.90
17986;DHT22;9118;48.122;11.546;2024-03-08T08:40:55;4.50;99.90
17986;DHT22;9118;48.122;11.546;2024-03-08T08:43:22;4.50;99.90
17986;DHT22;9118;48.122;11.546;2024-03-08T08:45:51;4.80;99.90
17986;DHT22;9118;48.122;11.546;2024-03-08T08:48:21;4.90;99.90
17986;DHT22;9118;48.122;11.546;2024-03-08T08:50:49;4.90;99.90
17986;DHT22;9118;48.122;11.546;2024-03-08T08:53:18;5.20;99.90
17986;DHT22;9118;48.122;11.546;2024-03-08T08:55:46;5.20;99.90
17986;DHT22;9118;48.122;11.546;2024-03-08T09:17:52;5.60;99.90
17986;DHT22;9118;48.122;11.546;2024-03-08T09:20:19;5.40;99.90
17986;DHT22;9118;48.122;11.546;2024-03-08T09:22:47;5.70;99.90
17986;DHT22;9118;48.122;11.546;2024-03-08T09:25:14;5.70;99.90
17986;DHT22;9118;48.122;11.546;2024-03-08T09:27:41;5.70;99.90
17986;DHT22;9118;48.122;11.546;2024-03-08T09:30:09;5.80;99.90
17986;DHT22;9118;48.122;11.546;2024-03-08T09:32:38;6.30;99.90
17986;DHT22;9118;48.122;11.546;2024-03-08T09:35:07;6.00;99.90
17986;DHT22;9118;48.122;11.546;2024-03-08T09:40:03;5.90;99.90
17986;DHT22;9118;48.122;11.546;2024-03-08T09:42:34;6.10;99.90
17986;DHT22;9118;48.122;11.546;2024-03-08T09:45:20;6.10;99.90
17986;DHT22;9118;48.122;11.546;2024-03-08T09:47:47;6.10;99.90
17986;DHT22;9118;48.122;11.546;2024-03-08T09:50:16;6.20;99.90
17986;DHT22;9118;48.122;11.546;2024-03-08T09:52:44;6.30;99.90
17986;DHT22;9118;48.122;11.546;2024-03-08T09:55:13;6.40;99.90
17986;DHT22;9118;48.122;11.546;2024-03-08T09:57:43;6.50;99.90
17986;DHT22;9118;48.122;11.546;2024-03-08T10:00:31;6.50;99.90
17986;DHT22;9118;48.122;11.546;2024-03-08T10:03:00;6.60;99.90
17986;DHT22;9118;48.122;11.546;2024-03-08T10:05:28;6.80;99.90
17986;DHT22;9118;48.122;11.546;2024-03-08T10:07:58;6.90;99.90
17986;DHT22;9118;48.122;11.546;2024-03-08T10:10:25;6.60;99.90
17986;DHT22;9118;48.122;11.546;2024-03-08T10:12:53;6.80;99.90
17986;DHT22;9118;48.122;11.546;2024-03-08T10:15:21;6.90;99.90
17986;DHT22;9118;48.122;11.546;2024-03-08T10:17:49;7.10;99.90
17986;DHT22;9118;48.122;11.546;2024-03-08T10:20:25;7.30;99.90
17986;DHT22;9118;48.122;11.546;2024-03-08T10:23:02;6.90;99.90
17986;DHT22;9118;48.122;11.546;2024-03-08T10:25:30;7.10;99.90
17986;DHT22;9118;48.122;11.546;2024-03-08T10:28:06;7.20;99.90
17986;DHT22;9118;48.122;11.546;2024-03-08T10:30:33;7.10;99.90
17986;DHT22;9118;48.122;11.546;2024-03-08T10:33:00;7.30;99.90
17986;DHT22;9118;48.122;11.546;2024-03-08T10:35:30;7.40;99.90
17986;DHT22;9118;48.122;11.546;2024-03-08T10:37:58;7.30;99.90
17986;DHT22;9118;48.122;11.546;2024-03-08T10:40:29;7.50;99.90
17986;DHT22;9118;48.122;11.546;2024-03-08T10:42:56;7.50;99.90
17986;DHT22;9118;48.122;11.546;2024-03-08T10:45:29;7.50;99.90
17986;DHT22;9118;48.122;11.546;2024-03-08T10:48:02;8.10;99.90
17986;DHT22;9118;48.122;11.546;2024-03-08T10:50:31;7.50;99.90
17986;DHT22;9118;48.122;11.546;2024-03-08T10:53:01;7.50;99.90
17986;DHT22;9118;48.122;11.546;2024-03-08T10:55:29;7.70;99.90
17986;DHT22;9118;48.122;11.546;2024-03-08T10:57:58;7.50;99.90
17986;DHT22;9118;48.122;11.546;2024-03-08T11:00:26;7.40;99.90
17986;DHT22;9118;48.122;11.546;2024-03-08T11:02:53;7.50;99.90
17986;DHT22;9118;48.122;11.546;2024-03-08T11:05:31;7.60;99.90
17986;DHT22;9118;48.122;11.546;2024-03-08T11:08:02;7.70;99.90
17986;DHT22;9118;48.122;11.546;2024-03-08T11:10:29;7.80;99.90
17986;DHT22;9118;48.122;11.546;2024-03-08T11:12:56;7.80;99.90
17986;DHT22;9118;48.122;11.546;2024-03-08T11:15:24;7.80;99.90
17986;DHT22;9118;48.122;11.546;2024-03-08T11:17:51;8.20;99.90
17986;DHT22;9118;48.122;11.546;2024-03-08T11:20:23;8.10;99.90
17986;DHT22;9118;48.122;11.546;2024-03-08T11:22:51;8.30;99.90
17986;DHT22;9118;48.122;11.546;2024-03-08T11:25:36;8.30;99.90
17986;DHT22;9118;48.122;11.546;2024-03-08T11:28:13;8.50;99.90
17986;DHT22;9118;48.122;11.546;2024-03-08T11:30:43;8.30;99.90
17986;DHT22;9118;48.122;11.546;2024-03-08T11:33:11;8.40;99.90
17986;DHT22;9118;48.122;11.546;2024-03-08T11:35:39;8.30;99.90
17986;DHT22;9118;48.122;11.546;2024-03-08T11:38:07;8.30;99.90
17986;DHT22;9118;48.122;11.546;2024-03-08T11:43:04;8.30;99.90
17986;DHT22;9118;48.122;11.546;2024-03-08T11:45:33;8.50;99.90
17986;DHT22;9118;48.122;11.546;2024-03-08T11:50:34;8.50;99.90
17986;DHT22;9118;48.122;11.546;2024-03-08T11:53:01;8.70;99.90
17986;DHT22;9118;48.122;11.546;2024-03-08T11:58:01;8.70;99.90
17986;DHT22;9118;48.122;11.546;2024-03-08T12:05:29;8.80;99.90
17986;DHT22;9118;48.122;11.546;2024-03-08T12:07:57;8.90;99.90
17986;DHT22;9118;48.122;11.546;2024-03-08T12:10:24;8.80;99.90
17986;DHT22;9118;48.122;11.546;2024-03-08T12:12:52;8.90;99.90
17986;DHT22;9118;48.122;11.546;2024-03-08T12:15:19;9.00;99.90
17986;DHT22;9118;48.122;11.546;2024-03-08T12:17:47;8.90;99.90
17986;DHT22;9118;48.122;11.546;2024-03-08T12:20:18;9.00;99.90
17986;DHT22;9118;48.122;11.546;2024-03-08T12:22:48;9.20;99.90
17986;DHT22;9118;48.122;11.546;2024-03-08T12:25:17;9.10;99.90
17986;DHT22;9118;48.122;11.546;2024-03-08T12:27:45;9.20;99.90
17986;DHT22;9118;48.122;11.546;2024-03-08T12:30:17;9.20;99.90
17986;DHT22;9118;48.122;11.546;2024-03-08T12:32:46;9.40;99.90
17986;DHT22;9118;48.122;11.546;2024-03-08T12:35:18;9.30;99.90
17986;DHT22;9118;48.122;11.546;2024-03-08T12:37:50;9.20;99.90
17986;DHT22;9118;48.122;11.546;2024-03-08T12:40:17;9.20;99.90
17986;DHT22;9118;48.122;11.546;2024-03-08T12:42:44;9.30;99.90
17986;DHT22;9118;48.122;11.546;2024-03-08T12:45:13;9.30;99.90
17986;DHT22;9118;48.122;11.546;2024-03-08T13:05:08;9.60;99.90
17986;DHT22;9118;48.122;11.546;2024-03-08T13:07:36;9.70;99.90
17986;DHT22;9118;48.122;11.546;2024-03-08T13:10:04;9.70;99.90
17986;DHT22;9118;48.122;11.546;2024-03-08T13:12:32;9.70;99.90
17986;DHT22;9118;48.122;11.546;2024-03-08T13:15:00;9.60;99.90
17986;DHT22;9118;48.122;11.546;2024-03-08T13:17:27;9.60;99.90
17986;DHT22;9118;48.122;11.546;2024-03-08T13:19:54;9.70;99.90
17986;DHT22;9118;48.122;11.546;2024-03-08T13:22:24;9.70;99.90
17986;DHT22;9118;48.122;11.546;2024-03-08T13:24:58;9.70;99.90
17986;DHT22;9118;48.122;11.546;2024-03-08T13:27:26;9.90;99.90
17986;DHT22;9118;48.122;11.546;2024-03-08T13:29:53;9.80;99.90
17986;DHT22;9118;48.122;11.546;2024-03-08T13:32:20;10.00;99.90
17986;DHT22;9118;48.122;11.546;2024-03-08T13:34:47;9.90;99.90
17986;DHT22;9118;48.122;11.546;2024-03-08T13:37:16;9.90;99.90
17986;DHT22;9118;48.122;11.546;2024-03-08T13:39:44;9.80;99.90
17986;DHT22;9118;48.122;11.546;2024-03-08T13:42:11;9.90;99.90
17986;DHT22;9118;48.122;11.546;2024-03-08T13:44:44;10.00;99.90
17986;DHT22;9118;48.122;11.546;2024-03-08T13:47:12;10.10;99.90
17986;DHT22;9118;48.122;11.546;2024-03-08T13:49:39;10.00;99.90
17986;DHT22;9118;48.122;11.546;2024-03-08T13:52:06;10.10;99.90
17986;DHT22;9118;48.122;11.546;2024-03-08T13:54:33;10.00;99.90
17986;DHT22;9118;48.122;11.546;2024-03-08T13:57:02;10.10;99.90
17986;DHT22;9118;48.122;11.546;2024-03-08T13:59:30;9.90;99.90
17986;DHT22;9118;48.122;11.546;2024-03-08T14:01:58;10.10;99.90
17986;DHT22;9118;48.122;11.546;2024-03-08T14:04:26;10.10;99.90
17986;DHT22;9118;48.122;11.546;2024-03-08T14:09:27;10.10;99.90
17986;DHT22;9118;48.122;11.546;2024-03-08T14:11:54;10.10;99.90
17986;DHT22;9118;48.122;11.546;2024-03-08T14:14:22;10.10;99.90
17986;DHT22;9118;48.122;11.546;2024-03-08T14:16:49;10.20;99.90
17986;DHT22;9118;48.122;11.546;2024-03-08T14:21:46;10.20;99.90
17986;DHT22;9118;48.122;11.546;2024-03-08T14:24:14;9.90;99.90
17986;DHT22;9118;48.122;11.546;2024-03-08T14:26:41;10.60;99.90
17986;DHT22;9118;48.122;11.546;2024-03-08T14:29:08;10.10;99.90
17986;DHT22;9118;48.122;11.546;2024-03-08T14:31:38;10.10;99.90
17986;DHT22;9118;48.122;11.546;2024-03-08T14:34:06;10.00;99.90
17986;DHT22;9118;48.122;11.546;2024-03-08T14:36:33;10.10;99.90
17986;DHT22;9118;48.122;11.546;2024-03-08T14:39:00;10.20;99.90
17986;DHT22;9118;48.122;11.546;2024-03-08T14:41:26;10.20;99.90
17986;DHT22;9118;48.122;11.546;2024-03-08T14:43:53;10.20;99.90
17986;DHT22;9118;48.122;11.546;2024-03-08T14:46:22;10.10;99.90
17986;DHT22;9118;48.122;11.546;2024-03-08T14:48:51;10.10;99.90
17986;DHT22;9118;48.122;11.546;2024-03-08T14:51:18;10.10;99.90
17986;DHT22;9118;48.122;11.546;2024-03-08T14:53:46;10.10;99.90
17986;DHT22;9118;48.122;11.546;2024-03-08T15:01:14;10.20;99.90
17986;DHT22;9118;48.122;11.546;2024-03-08T15:03:41;10.10;99.90
17986;DHT22;9118;48.122;11.546;2024-03-08T15:06:10;10.10;99.90
17986;DHT22;9118;48.122;11.546;2024-03-08T15:08:37;10.10;99.90
17986;DHT22;9118;48.122;11.546;2024-03-08T15:13:32;10.50;99.90
17986;DHT22;9118;48.122;11.546;2024-03-08T15:16:10;10.80;99.90
17986;DHT22;9118;48.122;11.546;2024-03-08T15:18:42;10.80;99.90
17986;DHT22;9118;48.122;11.546;2024-03-08T15:21:13;11.20;99.90
17986;DHT22;9118;48.122;11.546;2024-03-08T15:23:44;11.30;99.90
17986;DHT22;9118;48.122;11.546;2024-03-08T15:26:14;11.30;99.90
17986;DHT22;9118;48.122;11.546;2024-03-08T15:28:42;11.30;99.90
17986;DHT22;9118;48.122;11.546;2024-03-08T15:31:09;11.30;99.90
17986;DHT22;9118;48.122;11.546;2024-03-08T15:33:39;11.40;99.90
17986;DHT22;9118;48.122;11.546;2024-03-08T15:36:10;11.30;99.90
17986;DHT22;9118;48.122;11.546;2024-03-08T15:43:36;15.40;99.90
17986;DHT22;9118;48.122;11.546;2024-03-08T15:46:04;15.10;99.90
17986;DHT22;9118;48.122;11.546;2024-03-08T16:23:15;20.00;99.90
17986;DHT22;9118;48.122;11.546;2024-03-08T16:28:11;18.20;99.90
17986;DHT22;9118;48.122;11.546;2024-03-08T16:38:04;14.00;99.90
17986;DHT22;9118;48.122;11.546;2024-03-08T16:43:03;12.90;99.90
17986;DHT22;9118;48.122;11.546;2024-03-08T16:45:37;12.80;99.90
17986;DHT22;9118;48.122;11.546;2024-03-08T16:48:04;12.10;99.90
17986;DHT22;9118;48.122;11.546;2024-03-08T16:50:32;11.90;99.90
17986;DHT22;9118;48.122;11.546;2024-03-08T16:52:59;11.80;99.90
17986;DHT22;9118;48.122;11.546;2024-03-08T16:55:26;11.20;99.90
17986;DHT22;9118;48.122;11.546;2024-03-08T16:57:55;10.90;99.90
17986;DHT22;9118;48.122;11.546;2024-03-08T17:00:25;10.80;99.90
17986;DHT22;9118;48.122;11.546;2024-03-08T17:02:54;10.50;99.90
17986;DHT22;9118;48.122;11.546;2024-03-08T17:05:21;10.40;99.90
17986;DHT22;9118;48.122;11.546;2024-03-08T17:07:48;10.20;99.90
17986;DHT22;9118;48.122;11.546;2024-03-08T17:10:17;10.00;99.90
17986;DHT22;9118;48.122;11.546;2024-03-08T17:12:44;10.10;99.90
17986;DHT22;9118;48.122;11.546;2024-03-08T17:15:13;9.80;99.90
17986;DHT22;9118;48.122;11.546;2024-03-08T17:17:41;9.70;99.90
17986;DHT22;9118;48.122;11.546;2024-03-08T17:20:09;9.60;99.90
17986;DHT22;9118;48.122;11.546;2024-03-08T17:22:41;9.70;99.90
17986;DHT22;9118;48.122;11.546;2024-03-08T17:25:08;9.50;99.90
17986;DHT22;9118;48.122;11.546;2024-03-08T17:27:41;9.80;99.90
17986;DHT22;9118;48.122;11.546;2024-03-08T17:30:10;9.50;99.90
17986;DHT22;9118;48.122;11.546;2024-03-08T17:32:47;9.20;99.90
17986;DHT22;9118;48.122;11.546;2024-03-08T17:35:15;8.90;99.90
17986;DHT22;9118;48.122;11.546;2024-03-08T17:37:45;9.00;99.90
17986;DHT22;9118;48.122;11.546;2024-03-08T17:40:13;9.00;99.90
17986;DHT22;9118;48.122;11.546;2024-03-08T17:42:43;8.80;99.90
17986;DHT22;9118;48.122;11.546;2024-03-08T17:45:10;8.80;99.90
17986;DHT22;9118;48.122;11.546;2024-03-08T17:47:38;9.30;99.90
17986;DHT22;9118;48.122;11.546;2024-03-08T17:50:08;9.40;99.90